createdAt,value
2022-07-31T00:01:55.144Z,73.10
2022-07-31T00:04:40.977Z,73.24
2022-07-31T00:07:26.462Z,73.46
2022-07-31T00:10:12.270Z,73.81
2022-07-31T00:12:57.607Z,73.77
2022-07-31T00:15:42.910Z,74.25
2022-07-31T00:18:28.507Z,74.36
2022-07-31T00:21:15.368Z,74.56
2022-07-31T00:24:01.538Z,74.81
2022-07-31T00:26:52.689Z,75.08
2022-07-31T00:29:40.028Z,74.92
2022-07-31T00:32:26.728Z,74.74
2022-07-31T00:35:16.443Z,74.61
2022-07-31T00:38:27.986Z,74.59
2022-07-31T00:41:09.420Z,74.59
2022-07-31T00:43:54.905Z,74.70
2022-07-31T00:46:42.336Z,74.71
2022-07-31T00:49:37.503Z,75.04
2022-07-31T00:52:24.873Z,75.45
2022-07-31T00:55:12.874Z,75.31
2022-07-31T00:57:58.883Z,75.36
2022-07-31T01:00:44.299Z,75.15
2022-07-31T01:03:29.584Z,75.22
2022-07-31T01:06:15.393Z,75.33
2022-07-31T01:09:00.873Z,75.28
2022-07-31T01:11:57.729Z,75.16
2022-07-31T01:14:48.699Z,74.98
2022-07-31T01:17:37.330Z,74.62
2022-07-31T01:20:23.787Z,74.78
2022-07-31T01:23:35.471Z,74.95
2022-07-31T01:26:55.128Z,74.69
2022-07-31T01:29:46.300Z,74.89
2022-07-31T01:32:50.666Z,74.48
2022-07-31T01:35:44.488Z,74.43
2022-07-31T01:38:36.979Z,74.28
2022-07-31T01:41:26.798Z,74.29
2022-07-31T01:44:20.625Z,74.50
2022-07-31T01:47:14.263Z,74.59
2022-07-31T01:50:08.720Z,75.11
2022-07-31T01:53:20.683Z,75.27
2022-07-31T01:56:09.001Z,75.05
2022-07-31T01:58:57.627Z,75.14
2022-07-31T02:02:01.002Z,75.07
2022-07-31T02:04:49.075Z,75.13
2022-07-31T02:07:37.141Z,74.66
2022-07-31T02:10:24.541Z,75.12
2022-07-31T02:13:11.580Z,74.61
2022-07-31T02:15:59.956Z,74.79
2022-07-31T02:18:51.798Z,74.84
2022-07-31T02:21:42.772Z,74.97
2022-07-31T02:24:30.706Z,74.97
2022-07-31T02:27:56.241Z,75.28
2022-07-31T02:30:21.664Z,74.96
2022-07-31T02:33:11.584Z,75.11
2022-07-31T02:35:59.516Z,74.97
2022-07-31T02:38:46.085Z,74.78
2022-07-31T02:41:32.062Z,75.00
2022-07-31T02:44:18.798Z,74.88
2022-07-31T02:47:13.438Z,75.49
2022-07-31T02:50:00.179Z,75.05
2022-07-31T02:52:46.226Z,74.98
2022-07-31T02:55:35.031Z,75.50
2022-07-31T02:58:22.292Z,75.77
2022-07-31T03:01:09.772Z,75.84
2022-07-31T03:03:58.639Z,75.93
2022-07-31T03:06:52.500Z,75.87
2022-07-31T03:09:41.095Z,76.16
2022-07-31T03:12:59.419Z,76.02
2022-07-31T03:15:51.606Z,75.91
2022-07-31T03:18:54.701Z,75.89
2022-07-31T03:21:53.003Z,75.24
2022-07-31T03:24:41.372Z,75.52
2022-07-31T03:27:32.835Z,75.82
2022-07-31T03:30:25.452Z,75.52
2022-07-31T03:33:23.363Z,75.39
2022-07-31T03:36:21.670Z,75.44
2022-07-31T03:39:09.591Z,75.62
2022-07-31T03:42:05.259Z,75.85
2022-07-31T03:44:52.889Z,76.08
2022-07-31T03:47:39.916Z,76.16
2022-07-31T03:50:31.105Z,76.30
2022-07-31T03:53:21.010Z,76.25
2022-07-31T03:56:08.712Z,76.08
2022-07-31T03:58:54.655Z,76.31
2022-07-31T04:01:57.317Z,76.39
2022-07-31T04:05:16.797Z,76.83
2022-07-31T04:08:02.027Z,76.72
2022-07-31T04:10:48.954Z,76.47
2022-07-31T04:13:38.337Z,77.07
2022-07-31T04:16:23.565Z,77.13
2022-07-31T04:19:09.524Z,77.42
2022-07-31T04:21:54.923Z,77.49
2022-07-31T04:24:40.742Z,77.70
2022-07-31T04:27:48.051Z,77.82
2022-07-31T04:30:35.035Z,78.05
2022-07-31T04:33:21.376Z,78.58
2022-07-31T04:36:29.291Z,78.78
2022-07-31T04:39:17.417Z,78.72
2022-07-31T04:42:04.181Z,79.02
2022-07-31T04:44:51.207Z,78.85
2022-07-31T04:47:40.292Z,78.85
2022-07-31T04:50:27.035Z,78.76
2022-07-31T04:53:19.122Z,78.44
2022-07-31T04:56:25.570Z,78.57
2022-07-31T04:59:14.835Z,78.16
2022-07-31T05:02:06.106Z,78.25
2022-07-31T05:04:56.599Z,78.16
2022-07-31T05:07:43.351Z,78.42
2022-07-31T05:10:54.541Z,78.06
2022-07-31T05:13:41.949Z,78.21
2022-07-31T05:16:29.260Z,78.34
2022-07-31T05:19:18.411Z,78.46
2022-07-31T05:22:22.282Z,78.10
2022-07-31T05:25:26.441Z,78.52
2022-07-31T05:28:12.056Z,78.05
2022-07-31T05:30:58.075Z,78.29
2022-07-31T05:33:44.859Z,77.93
2022-07-31T05:36:30.272Z,77.91
2022-07-31T05:39:17.656Z,78.02
2022-07-31T05:42:21.787Z,78.03
2022-07-31T05:45:25.938Z,78.08
2022-07-31T05:48:11.448Z,78.12
2022-07-31T05:50:57.145Z,77.99
2022-07-31T05:53:44.335Z,78.40
2022-07-31T05:56:50.378Z,78.33
2022-07-31T05:59:39.958Z,78.23
2022-07-31T06:02:25.086Z,78.29
2022-07-31T06:05:41.144Z,78.06
2022-07-31T06:08:26.631Z,78.04
2022-07-31T06:11:12.344Z,78.10
2022-07-31T06:13:58.492Z,78.18
2022-07-31T06:16:55.228Z,78.29
2022-07-31T06:19:42.137Z,78.42
2022-07-31T06:22:29.695Z,78.44
2022-07-31T06:25:15.212Z,78.97
2022-07-31T06:28:01.154Z,79.18
2022-07-31T06:30:50.069Z,79.07
2022-07-31T06:33:36.800Z,79.44
2022-07-31T06:36:23.040Z,79.53
2022-07-31T06:39:17.229Z,79.75
2022-07-31T06:42:26.175Z,79.79
2022-07-31T06:45:48.465Z,79.98
2022-07-31T06:48:54.535Z,80.28
2022-07-31T06:51:41.972Z,80.63
2022-07-31T06:54:27.839Z,80.91
2022-07-31T06:57:14.375Z,81.27
2022-07-31T07:00:04.253Z,81.27
2022-07-31T07:02:53.136Z,81.42
2022-07-31T07:05:42.796Z,81.56
2022-07-31T07:08:31.423Z,81.24
2022-07-31T07:11:19.140Z,81.59
2022-07-31T07:14:08.249Z,81.66
2022-07-31T07:16:55.275Z,81.98
2022-07-31T07:19:42.337Z,81.79
2022-07-31T07:22:31.992Z,81.61
2022-07-31T07:25:20.989Z,81.78
2022-07-31T07:28:30.476Z,81.99
2022-07-31T07:31:25.948Z,81.73
2022-07-31T07:34:14.913Z,82.00
2022-07-31T07:37:01.224Z,81.58
2022-07-31T07:39:51.071Z,81.30
2022-07-31T07:42:38.557Z,81.23
2022-07-31T07:45:27.531Z,81.18
2022-07-31T07:48:14.793Z,81.34
2022-07-31T07:51:23.352Z,81.23
2022-07-31T07:54:19.118Z,81.15
2022-07-31T07:57:24.664Z,81.33
2022-07-31T08:00:29.370Z,81.10
2022-07-31T08:03:49.372Z,80.37
2022-07-31T08:06:26.046Z,80.41
2022-07-31T08:09:12.166Z,80.51
2022-07-31T08:12:18.120Z,80.45
2022-07-31T08:15:36.431Z,80.15
2022-07-31T08:18:45.692Z,80.56
2022-07-31T08:21:33.285Z,81.02
2022-07-31T08:24:19.638Z,81.64
2022-07-31T08:27:24.304Z,81.05
2022-07-31T08:30:30.841Z,80.63
2022-07-31T08:33:18.404Z,81.26
2022-07-31T08:36:12.860Z,81.50
2022-07-31T08:38:58.745Z,80.56
2022-07-31T08:42:09.004Z,81.06
2022-07-31T08:44:54.912Z,81.42
2022-07-31T08:47:49.240Z,81.80
2022-07-31T08:50:48.827Z,81.42
2022-07-31T08:54:03.196Z,81.65
2022-07-31T08:56:52.745Z,81.81
2022-07-31T08:59:43.415Z,81.36
2022-07-31T09:02:29.414Z,81.33
2022-07-31T09:05:42.552Z,81.48
2022-07-31T09:08:36.388Z,82.26
2022-07-31T09:11:23.836Z,82.28
2022-07-31T09:14:34.688Z,81.86
2022-07-31T09:17:33.100Z,81.28
2022-07-31T09:20:22.160Z,80.86
2022-07-31T09:23:10.533Z,80.93
2022-07-31T09:26:05.659Z,81.38
2022-07-31T09:28:53.967Z,81.96
2022-07-31T09:31:40.780Z,81.62
2022-07-31T09:35:16.411Z,81.58
2022-07-31T09:38:04.336Z,80.90
2022-07-31T09:42:00.164Z,80.60
2022-07-31T09:44:42.667Z,80.87
2022-07-31T09:47:33.606Z,81.30
2022-07-31T09:50:25.703Z,81.30
2022-07-31T09:53:14.828Z,81.74
2022-07-31T09:56:08.920Z,81.99
2022-07-31T09:58:54.960Z,81.63
2022-07-31T10:01:42.142Z,81.82
2022-07-31T10:04:29.220Z,81.36
2022-07-31T10:07:31.711Z,81.21
2022-07-31T10:10:25.362Z,81.58
2022-07-31T10:13:20.032Z,80.44
2022-07-31T10:16:07.639Z,79.67
2022-07-31T10:19:12.835Z,80.35
2022-07-31T10:22:20.779Z,80.72
2022-07-31T10:25:18.432Z,80.40
2022-07-31T10:28:09.335Z,80.62
2022-07-31T10:30:57.941Z,81.11
2022-07-31T10:33:51.355Z,80.94
2022-07-31T10:37:03.789Z,79.76
2022-07-31T10:40:09.071Z,80.10
2022-07-31T10:43:25.824Z,80.27
2022-07-31T10:46:30.159Z,80.25
2022-07-31T10:49:40.411Z,81.00
2022-07-31T10:52:57.333Z,80.89
2022-07-31T10:56:06.346Z,80.48
2022-07-31T10:59:12.926Z,80.24
2022-07-31T11:02:35.603Z,80.84
2022-07-31T11:06:03.183Z,81.15
2022-07-31T11:09:09.044Z,80.79
2022-07-31T11:12:19.924Z,80.05
2022-07-31T11:15:26.064Z,79.76
2022-07-31T11:18:35.417Z,80.77
2022-07-31T11:21:38.925Z,80.45
2022-07-31T11:24:25.456Z,81.26
2022-07-31T11:27:12.385Z,81.43
2022-07-31T11:30:13.474Z,80.96
2022-07-31T11:33:00.409Z,80.02
2022-07-31T11:35:50.399Z,79.93
2022-07-31T11:38:37.540Z,80.27
2022-07-31T11:41:40.404Z,79.74
2022-07-31T11:44:31.172Z,79.05
2022-07-31T11:48:09.484Z,79.76
2022-07-31T11:50:23.506Z,81.27
2022-07-31T11:53:09.746Z,79.90
2022-07-31T11:55:59.506Z,76.99
2022-07-31T11:58:50.259Z,76.87
2022-07-31T12:01:36.233Z,76.35
2022-07-31T12:04:26.816Z,75.58
2022-07-31T12:07:13.217Z,76.86
2022-07-31T12:10:02.261Z,75.19
2022-07-31T12:12:49.649Z,75.45
2022-07-31T12:15:43.689Z,75.57
2022-07-31T12:18:30.102Z,75.85
2022-07-31T12:21:17.383Z,76.11
2022-07-31T12:24:12.228Z,75.64
2022-07-31T12:27:00.235Z,75.28
2022-07-31T12:29:50.137Z,74.12
2022-07-31T12:32:36.957Z,73.12
2022-07-31T12:35:55.371Z,72.76
2022-07-31T12:38:48.425Z,72.73
2022-07-31T12:41:43.737Z,72.63
2022-07-31T12:44:29.755Z,72.00
2022-07-31T12:47:31.239Z,72.62
2022-07-31T12:50:20.188Z,72.09
2022-07-31T12:53:06.162Z,71.36
2022-07-31T12:55:55.063Z,70.54
2022-07-31T12:58:41.151Z,70.08
2022-07-31T13:01:27.572Z,69.44
2022-07-31T13:04:18.870Z,70.13
2022-07-31T13:07:06.121Z,70.19
2022-07-31T13:10:21.104Z,70.29
2022-07-31T13:13:02.364Z,68.45
2022-07-31T13:15:47.987Z,68.43
2022-07-31T13:18:36.440Z,68.53
2022-07-31T13:21:22.629Z,68.87
2022-07-31T13:24:09.505Z,69.65
2022-07-31T13:26:58.906Z,69.20
2022-07-31T13:29:45.762Z,69.44
2022-07-31T13:32:31.894Z,70.19
2022-07-31T13:35:27.755Z,70.13
2022-07-31T13:38:15.725Z,69.96
2022-07-31T13:41:26.727Z,70.28
2022-07-31T13:44:21.146Z,70.12
2022-07-31T13:47:11.811Z,69.75
2022-07-31T13:49:58.375Z,70.36
2022-07-31T13:52:44.198Z,70.19
2022-07-31T13:55:30.017Z,70.14
2022-07-31T13:58:32.681Z,70.29
2022-07-31T14:01:20.181Z,69.30
2022-07-31T14:04:16.283Z,70.00
2022-07-31T14:07:48.040Z,69.11
2022-07-31T14:10:48.491Z,67.99
2022-07-31T14:13:42.518Z,67.62
2022-07-31T14:16:29.166Z,66.91
2022-07-31T14:19:15.411Z,67.28
2022-07-31T14:22:01.702Z,67.06
2022-07-31T14:24:51.098Z,67.84
2022-07-31T14:27:39.168Z,67.76
2022-07-31T14:30:26.006Z,68.55
2022-07-31T14:33:13.600Z,68.33
2022-07-31T14:36:06.194Z,67.35
2022-07-31T14:38:53.469Z,67.53
2022-07-31T14:41:40.338Z,63.59
2022-07-31T14:44:30.696Z,63.92
2022-07-31T14:47:17.702Z,64.28
2022-07-31T14:50:09.331Z,64.77
2022-07-31T14:52:58.884Z,66.25
2022-07-31T14:55:44.315Z,66.55
2022-07-31T14:58:29.593Z,66.98
2022-07-31T15:01:15.923Z,68.15
2022-07-31T15:04:06.646Z,69.22
2022-07-31T15:07:07.167Z,69.94
2022-07-31T15:09:59.694Z,70.32
2022-07-31T15:12:45.697Z,71.53
2022-07-31T15:15:33.810Z,71.86
2022-07-31T15:18:25.201Z,72.43
2022-07-31T15:21:16.467Z,72.94
2022-07-31T15:24:02.769Z,73.33
2022-07-31T15:26:48.666Z,73.97
2022-07-31T15:30:00.390Z,73.42
2022-07-31T15:32:40.860Z,74.24
2022-07-31T15:35:27.365Z,73.72
2022-07-31T15:38:14.012Z,73.54
2022-07-31T15:41:00.514Z,73.57
2022-07-31T15:43:47.021Z,75.08
2022-07-31T15:46:33.308Z,75.28
2022-07-31T15:49:19.538Z,76.31
2022-07-31T15:52:05.802Z,76.87
2022-07-31T15:55:07.129Z,77.66
2022-07-31T15:57:53.848Z,78.26
2022-07-31T16:00:39.312Z,78.49
2022-07-31T16:03:50.273Z,79.15
2022-07-31T16:06:33.698Z,80.06
2022-07-31T16:09:19.780Z,80.53
2022-07-31T16:12:06.450Z,81.21
2022-07-31T16:14:51.983Z,81.41
2022-07-31T16:17:59.827Z,81.91
2022-07-31T16:20:48.194Z,81.29
2022-07-31T16:23:49.079Z,80.76
2022-07-31T16:26:38.307Z,80.95
2022-07-31T16:29:59.274Z,80.52
2022-07-31T16:32:32.420Z,80.30
2022-07-31T16:35:18.959Z,80.21
2022-07-31T16:38:04.723Z,80.27
2022-07-31T16:40:53.444Z,80.48
2022-07-31T16:43:49.923Z,80.90
2022-07-31T16:46:37.956Z,80.81
2022-07-31T16:49:31.931Z,80.95
2022-07-31T16:52:21.952Z,80.88
2022-07-31T16:55:08.694Z,80.47
2022-07-31T16:57:54.627Z,80.65
2022-07-31T17:00:40.252Z,80.75
2022-07-31T17:03:58.747Z,80.42
2022-07-31T17:06:36.459Z,80.57
2022-07-31T17:09:23.105Z,80.75
2022-07-31T17:12:08.699Z,81.09
2022-07-31T17:14:54.489Z,80.84
2022-07-31T17:17:40.309Z,80.63
2022-07-31T17:20:25.883Z,80.67
2022-07-31T17:23:13.234Z,81.11
2022-07-31T17:25:59.399Z,81.14
2022-07-31T17:28:46.020Z,81.50
2022-07-31T17:31:31.876Z,81.79
2022-07-31T17:34:19.201Z,81.70
2022-07-31T17:37:05.244Z,81.84
2022-07-31T17:39:56.288Z,82.02
2022-07-31T17:42:44.595Z,81.81
2022-07-31T17:45:50.691Z,81.39
2022-07-31T17:48:37.092Z,81.17
2022-07-31T17:51:23.549Z,80.99
2022-07-31T17:54:10.435Z,81.23
2022-07-31T17:56:56.355Z,81.11
2022-07-31T17:59:42.201Z,80.50
2022-07-31T18:02:28.386Z,80.33
2022-07-31T18:05:14.280Z,80.31
2022-07-31T18:08:00.950Z,80.18
2022-07-31T18:10:54.377Z,80.80
2022-07-31T18:13:48.561Z,80.50
2022-07-31T18:16:37.697Z,80.46
2022-07-31T18:19:23.243Z,80.41
2022-07-31T18:22:08.678Z,80.43
2022-07-31T18:24:54.163Z,80.02
2022-07-31T18:27:40.762Z,80.06
2022-07-31T18:30:30.765Z,79.76
2022-07-31T18:33:20.111Z,79.46
2022-07-31T18:36:06.234Z,79.66
2022-07-31T18:38:57.739Z,79.75
2022-07-31T18:41:48.617Z,80.11
2022-07-31T18:44:34.268Z,80.21
2022-07-31T18:47:21.115Z,80.16
2022-07-31T18:51:01.035Z,80.26
2022-07-31T18:53:13.419Z,80.52
2022-07-31T18:55:59.501Z,80.56
2022-07-31T18:58:45.545Z,80.57
2022-07-31T19:01:31.832Z,80.77
2022-07-31T19:04:26.862Z,80.43
2022-07-31T19:07:14.054Z,80.17
2022-07-31T19:10:02.810Z,79.76
2022-07-31T19:12:50.405Z,79.85
2022-07-31T19:15:37.783Z,80.08
2022-07-31T19:18:28.691Z,80.20
2022-07-31T19:21:22.618Z,80.20
2022-07-31T19:24:21.868Z,80.25
2022-07-31T19:27:08.192Z,80.03
2022-07-31T19:29:54.122Z,79.67
2022-07-31T19:32:41.314Z,79.37
2022-07-31T19:35:27.945Z,79.72
2022-07-31T19:38:13.985Z,79.78
2022-07-31T19:41:00.388Z,79.70
2022-07-31T19:43:47.512Z,79.76
2022-07-31T19:46:33.430Z,79.60
2022-07-31T19:49:22.460Z,80.08
2022-07-31T19:52:08.783Z,80.24
2022-07-31T19:54:54.487Z,80.17
2022-07-31T19:57:42.382Z,80.36
2022-07-31T20:00:28.260Z,80.02
2022-07-31T20:03:14.077Z,79.77
2022-07-31T20:06:00.461Z,79.58
2022-07-31T20:08:49.404Z,79.21
2022-07-31T20:11:35.699Z,79.10
2022-07-31T20:14:21.268Z,78.51
2022-07-31T20:17:07.626Z,78.50
2022-07-31T20:20:11.821Z,78.39
2022-07-31T20:23:00.551Z,78.26
2022-07-31T20:25:46.911Z,78.16
2022-07-31T20:28:32.689Z,78.18
2022-07-31T20:31:21.938Z,78.20
2022-07-31T20:34:08.102Z,77.94
2022-07-31T20:36:58.858Z,78.30
2022-07-31T20:39:44.966Z,78.35
2022-07-31T20:42:30.361Z,78.35
2022-07-31T20:45:16.516Z,78.31
2022-07-31T20:48:02.156Z,78.08
2022-07-31T20:50:48.118Z,77.80
2022-07-31T20:53:34.467Z,77.68
2022-07-31T20:56:20.831Z,77.11
2022-07-31T20:59:07.193Z,76.91
2022-07-31T21:01:52.998Z,77.27
2022-07-31T21:04:39.025Z,77.42
2022-07-31T21:07:25.888Z,77.00
2022-07-31T21:10:11.744Z,76.86
2022-07-31T21:12:57.933Z,76.05
2022-07-31T21:15:47.083Z,75.67
2022-07-31T21:18:34.673Z,75.52
2022-07-31T21:21:22.129Z,75.74
2022-07-31T21:24:08.205Z,76.01
2022-07-31T21:26:59.158Z,75.89
2022-07-31T21:29:45.046Z,75.38
2022-07-31T21:32:30.963Z,74.99
2022-07-31T21:35:36.361Z,74.92
2022-07-31T21:38:23.769Z,75.29
2022-07-31T21:41:09.763Z,75.60
2022-07-31T21:43:59.497Z,75.59
2022-07-31T21:46:51.580Z,75.53
2022-07-31T21:49:39.164Z,75.40
2022-07-31T21:52:27.387Z,75.27
2022-07-31T21:55:13.555Z,74.94
2022-07-31T21:58:00.126Z,75.25
2022-07-31T22:00:46.837Z,75.02
2022-07-31T22:03:32.669Z,74.84
2022-07-31T22:06:36.877Z,75.23
2022-07-31T22:09:24.858Z,75.35
2022-07-31T22:12:10.612Z,75.40
2022-07-31T22:14:59.799Z,75.07
2022-07-31T22:17:46.962Z,74.81
2022-07-31T22:20:32.916Z,74.69
2022-07-31T22:23:19.045Z,74.86
2022-07-31T22:26:05.288Z,74.79
2022-07-31T22:28:52.551Z,75.14
2022-07-31T22:31:39.093Z,75.17
2022-07-31T22:34:37.427Z,74.90
2022-07-31T22:37:25.839Z,75.12
2022-07-31T22:40:11.825Z,75.22
2022-07-31T22:42:58.386Z,75.46
2022-07-31T22:45:44.003Z,75.35
2022-07-31T22:48:31.189Z,74.75
2022-07-31T22:51:17.245Z,75.24
2022-07-31T22:54:03.043Z,75.29
2022-07-31T22:56:48.632Z,75.47
2022-07-31T22:59:34.360Z,75.34
2022-07-31T23:02:20.008Z,75.47
2022-07-31T23:05:07.123Z,75.54
2022-07-31T23:07:53.249Z,75.40
2022-07-31T23:10:39.004Z,75.75
2022-07-31T23:13:24.261Z,75.94
2022-07-31T23:16:10.273Z,75.46
2022-07-31T23:18:56.218Z,75.75
2022-07-31T23:21:41.998Z,75.33
2022-07-31T23:24:27.825Z,75.47
2022-07-31T23:27:13.280Z,75.14
2022-07-31T23:29:59.908Z,75.48
2022-07-31T23:32:45.969Z,75.36
2022-07-31T23:35:32.174Z,75.38
2022-07-31T23:38:17.784Z,75.42
2022-07-31T23:41:03.933Z,75.29
2022-07-31T23:43:55.370Z,74.38
2022-07-31T23:46:40.854Z,74.90
2022-07-31T23:49:26.560Z,74.82
2022-07-31T23:52:12.560Z,74.91
2022-07-31T23:54:58.579Z,74.65
2022-07-31T23:57:44.135Z,74.42
